createdAt,value
2018-05-10T00:04:38.058Z,42.40
2018-05-10T00:09:40.646Z,42.50
2018-05-10T00:14:43.548Z,42.50
2018-05-10T00:19:46.132Z,42.50
2018-05-10T00:24:48.836Z,42.50
2018-05-10T00:29:51.808Z,42.40
2018-05-10T00:34:54.447Z,42.50
2018-05-10T00:39:57.008Z,42.50
2018-05-10T00:44:59.545Z,43.00
2018-05-10T00:50:02.129Z,42.50
2018-05-10T00:55:04.927Z,42.40
2018-05-10T01:00:08.195Z,42.50
2018-05-10T01:05:10.739Z,42.50
2018-05-10T01:10:13.283Z,42.50
2018-05-10T01:15:16.653Z,42.50
2018-05-10T01:20:19.193Z,42.40
2018-05-10T01:25:22.420Z,42.50
2018-05-10T01:30:25.430Z,42.50
2018-05-10T01:35:39.989Z,42.50
2018-05-10T01:40:42.575Z,42.60
2018-05-10T01:45:46.511Z,42.60
2018-05-10T01:50:49.871Z,42.50
2018-05-10T01:55:52.411Z,42.50
2018-05-10T02:00:55.054Z,42.60
2018-05-10T02:05:57.646Z,42.60
2018-05-10T02:11:00.333Z,42.60
2018-05-10T02:16:03.368Z,42.70
2018-05-10T02:21:05.962Z,42.80
2018-05-10T02:26:08.550Z,42.70
2018-05-10T02:31:11.405Z,42.90
2018-05-10T02:36:14.005Z,42.80
2018-05-10T02:41:16.785Z,42.80
2018-05-10T02:46:20.624Z,42.80
2018-05-10T02:51:23.959Z,43.00
2018-05-10T02:56:27.085Z,42.80
2018-05-10T03:01:29.667Z,43.00
2018-05-10T03:06:32.263Z,43.00
2018-05-10T03:11:34.826Z,43.00
2018-05-10T03:16:38.117Z,43.00
2018-05-10T03:21:40.949Z,43.00
2018-05-10T03:26:44.256Z,43.10
2018-05-10T03:31:47.566Z,43.20
2018-05-10T03:36:51.248Z,43.10
2018-05-10T03:41:54.045Z,43.10
2018-05-10T03:46:57.229Z,43.30
2018-05-10T03:51:59.789Z,43.30
2018-05-10T03:57:02.623Z,43.30
2018-05-10T04:02:05.173Z,43.30
2018-05-10T04:07:19.637Z,43.40
2018-05-10T04:12:22.248Z,43.30
2018-05-10T04:17:25.151Z,43.30
2018-05-10T04:22:27.719Z,43.30
2018-05-10T04:27:31.142Z,43.30
2018-05-10T04:32:33.628Z,43.30
2018-05-10T04:37:36.621Z,43.40
2018-05-10T04:42:39.154Z,43.50
2018-05-10T04:47:42.472Z,43.50
2018-05-10T04:52:45.315Z,43.50
2018-05-10T04:57:47.959Z,43.50
2018-05-10T05:02:51.307Z,43.50
2018-05-10T05:07:54.181Z,43.50
2018-05-10T05:12:58.086Z,43.50
2018-05-10T05:18:00.694Z,43.50
2018-05-10T05:23:04.008Z,43.60
2018-05-10T05:28:06.577Z,43.50
2018-05-10T05:33:10.016Z,43.50
2018-05-10T05:38:13.494Z,43.50
2018-05-10T05:43:16.083Z,43.50
2018-05-10T05:48:18.963Z,43.60
2018-05-10T05:53:22.281Z,43.60
2018-05-10T05:58:24.898Z,43.60
2018-05-10T06:03:27.475Z,43.60
2018-05-10T06:08:30.521Z,43.60
2018-05-10T06:13:33.387Z,43.50
2018-05-10T06:18:36.052Z,43.50
2018-05-10T06:23:38.740Z,43.50
2018-05-10T06:28:42.068Z,44.00
2018-05-10T06:33:44.612Z,43.60
2018-05-10T06:38:47.554Z,43.60
2018-05-10T06:43:51.443Z,43.60
2018-05-10T06:48:54.601Z,43.60
2018-05-10T06:53:57.179Z,43.60
2018-05-10T06:59:00.629Z,43.70
2018-05-10T07:04:03.501Z,43.60
2018-05-10T07:09:06.039Z,43.70
2018-05-10T07:14:08.802Z,43.60
2018-05-10T07:19:12.271Z,43.80
2018-05-10T07:24:15.110Z,43.70
2018-05-10T07:29:18.401Z,43.80
2018-05-10T07:34:21.324Z,43.80
2018-05-10T07:39:23.858Z,43.80
2018-05-10T07:44:26.434Z,43.60
2018-05-10T07:49:29.082Z,43.90
2018-05-10T07:54:31.636Z,44.70
2018-05-10T07:59:34.170Z,44.60
2018-05-10T08:04:37.108Z,44.80
2018-05-10T08:09:40.448Z,44.80
2018-05-10T08:14:43.127Z,44.80
2018-05-10T08:19:46.592Z,44.80
2018-05-10T08:24:49.462Z,44.80
2018-05-10T08:29:51.997Z,44.80
2018-05-10T08:34:54.700Z,44.70
2018-05-10T08:39:57.672Z,44.60
2018-05-10T08:45:00.490Z,44.40
2018-05-10T08:50:03.107Z,44.30
2018-05-10T08:55:05.852Z,44.30
2018-05-10T09:00:08.585Z,44.40
2018-05-10T09:05:11.339Z,44.60
2018-05-10T09:10:13.959Z,44.40
2018-05-10T09:15:16.657Z,43.40
2018-05-10T09:20:19.942Z,44.40
2018-05-10T09:25:23.417Z,44.20
2018-05-10T09:30:28.390Z,43.90
2018-05-10T09:35:31.283Z,44.00
2018-05-10T09:40:34.419Z,43.80
2018-05-10T09:45:36.990Z,43.90
2018-05-10T09:50:40.325Z,43.80
2018-05-10T09:55:43.363Z,43.80
2018-05-10T10:00:46.803Z,43.90
2018-05-10T10:05:49.403Z,43.60
2018-05-10T10:10:51.939Z,43.30
2018-05-10T10:15:54.755Z,42.80
2018-05-10T10:20:58.151Z,42.40
2018-05-10T10:26:00.768Z,42.30
2018-05-10T10:31:04.219Z,42.40
2018-05-10T10:36:08.296Z,42.10
2018-05-10T10:41:11.597Z,42.00
2018-05-10T10:46:15.434Z,42.40
2018-05-10T10:51:18.002Z,41.80
2018-05-10T10:56:20.519Z,41.80
2018-05-10T11:01:23.687Z,41.80
2018-05-10T11:06:26.279Z,42.00
2018-05-10T11:11:28.945Z,42.20
2018-05-10T11:16:31.850Z,41.90
2018-05-10T11:21:34.439Z,41.70
2018-05-10T11:26:37.529Z,41.60
2018-05-10T11:31:40.111Z,41.50
2018-05-10T11:36:43.587Z,41.10
2018-05-10T11:41:46.350Z,41.10
2018-05-10T11:46:48.924Z,40.70
2018-05-10T11:51:51.834Z,40.70
2018-05-10T11:56:54.486Z,40.80
2018-05-10T12:01:57.106Z,40.80
2018-05-10T12:06:59.901Z,40.80
2018-05-10T12:12:02.468Z,41.20
2018-05-10T12:17:05.027Z,41.60
2018-05-10T12:22:08.126Z,41.80
2018-05-10T12:27:11.257Z,41.90
2018-05-10T12:32:15.748Z,42.00
2018-05-10T12:37:18.923Z,42.10
2018-05-10T12:42:21.465Z,42.10
2018-05-10T12:47:25.484Z,42.80
2018-05-10T12:52:28.176Z,42.20
2018-05-10T12:57:30.985Z,42.30
2018-05-10T13:02:33.552Z,42.40
2018-05-10T13:07:36.447Z,42.50
2018-05-10T13:12:39.457Z,42.50
2018-05-10T13:17:42.315Z,42.60
2018-05-10T13:22:46.505Z,41.50
2018-05-10T13:27:49.543Z,41.30
2018-05-10T13:32:52.328Z,41.30
2018-05-10T13:37:54.863Z,40.40
2018-05-10T13:42:59.375Z,40.10
2018-05-10T13:48:02.668Z,39.80
2018-05-10T13:53:05.370Z,39.80
2018-05-10T13:58:07.852Z,40.50
2018-05-10T14:03:10.475Z,39.80
2018-05-10T14:08:13.782Z,40.10
2018-05-10T14:13:16.631Z,40.00
2018-05-10T14:18:20.474Z,40.40
2018-05-10T14:23:23.059Z,40.60
2018-05-10T14:28:26.164Z,40.70
2018-05-10T14:33:28.829Z,40.70
2018-05-10T14:38:31.524Z,40.50
2018-05-10T14:43:34.082Z,40.50
2018-05-10T14:48:37.596Z,40.10
2018-05-10T14:53:40.108Z,39.80
2018-05-10T14:58:42.653Z,39.70
2018-05-10T15:08:54.562Z,39.50
2018-05-10T15:13:58.352Z,39.70
2018-05-10T15:19:01.210Z,39.70
2018-05-10T15:24:04.361Z,39.80
2018-05-10T15:29:07.420Z,40.10
2018-05-10T15:34:09.998Z,40.10
2018-05-10T15:39:13.501Z,40.40
2018-05-10T15:44:16.326Z,40.40
2018-05-10T15:49:19.222Z,40.40
2018-05-10T15:54:23.630Z,40.80
2018-05-10T15:59:26.882Z,40.70
2018-05-10T16:04:31.272Z,40.80
2018-05-10T16:09:34.807Z,40.60
2018-05-10T16:14:37.389Z,40.60
2018-05-10T16:19:40.021Z,40.70
2018-05-10T16:24:42.783Z,40.70
2018-05-10T16:29:45.459Z,40.50
2018-05-10T16:34:48.914Z,40.50
2018-05-10T16:39:52.736Z,39.90
2018-05-10T16:44:55.295Z,39.80
2018-05-10T16:49:58.922Z,40.20
2018-05-10T16:55:01.561Z,40.60
2018-05-10T17:00:04.253Z,40.80
2018-05-10T17:05:06.859Z,41.10
2018-05-10T17:10:10.490Z,41.70
2018-05-10T17:15:13.028Z,41.70
2018-05-10T17:20:15.757Z,41.80
2018-05-10T17:25:18.771Z,41.80
2018-05-10T17:30:22.888Z,42.80
2018-05-10T17:35:26.269Z,43.40
2018-05-10T17:40:28.918Z,42.80
2018-05-10T17:45:33.469Z,43.30
2018-05-10T17:50:37.086Z,43.20
2018-05-10T17:55:39.663Z,43.20
2018-05-10T18:00:43.004Z,43.80
2018-05-10T18:05:45.577Z,43.70
2018-05-10T18:10:49.570Z,45.00
2018-05-10T18:15:52.331Z,44.30
2018-05-10T18:20:55.025Z,44.00
2018-05-10T18:25:57.629Z,44.40
2018-05-10T18:31:00.817Z,44.60
2018-05-10T18:36:04.146Z,45.20
2018-05-10T18:41:06.926Z,45.10
2018-05-10T18:46:09.556Z,45.50
2018-05-10T18:51:12.374Z,47.00
2018-05-10T18:56:15.218Z,47.00
2018-05-10T19:01:18.620Z,47.00
2018-05-10T19:06:21.330Z,47.00
2018-05-10T19:11:24.075Z,47.40
2018-05-10T19:16:27.659Z,47.30
2018-05-10T19:21:31.689Z,48.50
2018-05-10T19:26:34.382Z,48.40
2018-05-10T19:31:37.152Z,49.00
2018-05-10T19:36:40.229Z,49.30
2018-05-10T19:41:43.297Z,49.80
2018-05-10T19:46:46.122Z,49.00
2018-05-10T19:51:48.840Z,48.50
2018-05-10T19:56:51.627Z,49.00
2018-05-10T20:01:55.059Z,48.80
2018-05-10T20:06:57.800Z,49.00
2018-05-10T20:12:00.815Z,49.10
2018-05-10T20:17:04.222Z,49.30
2018-05-10T20:22:06.830Z,49.20
2018-05-10T20:27:09.952Z,49.60
2018-05-10T20:32:12.760Z,49.90
2018-05-10T20:37:15.298Z,49.60
2018-05-10T20:42:18.552Z,49.60
2018-05-10T20:47:21.365Z,49.60
2018-05-10T20:52:26.851Z,49.50
2018-05-10T20:57:30.465Z,49.30
2018-05-10T21:02:34.047Z,49.30
2018-05-10T21:07:37.494Z,49.20
2018-05-10T21:12:43.451Z,49.10
2018-05-10T21:17:47.602Z,49.10
2018-05-10T21:22:50.287Z,48.90
2018-05-10T21:27:52.883Z,48.90
2018-05-10T21:32:56.482Z,48.90
2018-05-10T21:38:00.176Z,48.60
2018-05-10T21:43:02.807Z,48.60
2018-05-10T21:48:05.958Z,48.80
2018-05-10T21:53:09.091Z,48.80
2018-05-10T21:58:12.494Z,48.80
2018-05-10T22:03:15.577Z,48.70
2018-05-10T22:08:19.020Z,48.70
2018-05-10T22:13:21.741Z,48.50
2018-05-10T22:18:24.363Z,48.50
2018-05-10T22:23:26.964Z,48.70
2018-05-10T22:28:29.529Z,48.60
2018-05-10T22:33:32.633Z,48.60
2018-05-10T22:38:35.316Z,49.70
2018-05-10T22:43:37.899Z,50.80
2018-05-10T22:48:41.255Z,52.50
2018-05-10T22:53:44.026Z,52.50
2018-05-10T22:58:46.806Z,52.80
2018-05-10T23:03:49.491Z,50.80
2018-05-10T23:08:52.072Z,50.30
2018-05-10T23:13:55.137Z,49.80
2018-05-10T23:18:57.833Z,49.30
2018-05-10T23:24:01.184Z,49.00
2018-05-10T23:29:03.973Z,49.00
2018-05-10T23:34:07.441Z,48.90
2018-05-10T23:39:10.234Z,48.80
2018-05-10T23:44:13.494Z,48.80
2018-05-10T23:49:16.307Z,48.80
2018-05-10T23:54:19.301Z,48.80
2018-05-10T23:59:22.331Z,48.70
